sensor_id;sensor_type;location;lat;lon;timestamp;temperature;humidity
32640;DHT22;19049;52.524;11.468;2023-08-24T00:00:51;15.30;99.90
32640;DHT22;19049;52.524;11.468;2023-08-24T00:03:16;15.20;99.90
32640;DHT22;19049;52.524;11.468;2023-08-24T00:05:42;15.20;99.90
32640;DHT22;19049;52.524;11.468;2023-08-24T00:08:09;16.30;99.90
32640;DHT22;19049;52.524;11.468;2023-08-24T00:10:35;15.60;93.70
32640;DHT22;19049;52.524;11.468;2023-08-24T00:13:01;15.10;99.90
32640;DHT22;19049;52.524;11.468;2023-08-24T00:20:20;15.70;99.90
32640;DHT22;19049;52.524;11.468;2023-08-24T00:22:46;15.60;99.90
32640;DHT22;19049;52.524;11.468;2023-08-24T00:25:12;16.00;99.90
32640;DHT22;19049;52.524;11.468;2023-08-24T00:27:38;16.50;99.90
32640;DHT22;19049;52.524;11.468;2023-08-24T00:30:05;15.50;94.40
32640;DHT22;19049;52.524;11.468;2023-08-24T00:32:32;15.30;99.90
32640;DHT22;19049;52.524;11.468;2023-08-24T00:35:05;15.70;99.90
32640;DHT22;19049;52.524;11.468;2023-08-24T00:37:35;15.70;99.90
32640;DHT22;19049;52.524;11.468;2023-08-24T00:40:02;15.40;94.20
32640;DHT22;19049;52.524;11.468;2023-08-24T00:42:30;15.90;99.90
32640;DHT22;19049;52.524;11.468;2023-08-24T00:47:23;15.30;99.90
32640;DHT22;19049;52.524;11.468;2023-08-24T00:49:50;15.30;99.90
32640;DHT22;19049;52.524;11.468;2023-08-24T00:52:16;15.20;99.90
32640;DHT22;19049;52.524;11.468;2023-08-24T00:54:43;15.80;99.90
32640;DHT22;19049;52.524;11.468;2023-08-24T00:57:10;15.40;94.30
32640;DHT22;19049;52.524;11.468;2023-08-24T00:59:36;15.10;99.00
32640;DHT22;19049;52.524;11.468;2023-08-24T01:02:02;15.90;97.50
32640;DHT22;19049;52.524;11.468;2023-08-24T01:04:27;15.50;99.90
32640;DHT22;19049;52.524;11.468;2023-08-24T01:09:20;14.90;96.80
32640;DHT22;19049;52.524;11.468;2023-08-24T01:11:58;16.10;99.90
32640;DHT22;19049;52.524;11.468;2023-08-24T01:17:20;15.10;94.50
32640;DHT22;19049;52.524;11.468;2023-08-24T01:19:47;15.50;99.90
32640;DHT22;19049;52.524;11.468;2023-08-24T01:22:33;14.90;97.20
32640;DHT22;19049;52.524;11.468;2023-08-24T01:25:07;14.50;95.10
32640;DHT22;19049;52.524;11.468;2023-08-24T01:27:37;14.40;99.90
32640;DHT22;19049;52.524;11.468;2023-08-24T01:30:04;15.50;99.90
32640;DHT22;19049;52.524;11.468;2023-08-24T01:32:31;15.40;99.90
32640;DHT22;19049;52.524;11.468;2023-08-24T01:34:58;14.50;95.40
32640;DHT22;19049;52.524;11.468;2023-08-24T01:40:06;14.90;94.90
32640;DHT22;19049;52.524;11.468;2023-08-24T01:42:56;15.40;99.90
32640;DHT22;19049;52.524;11.468;2023-08-24T01:45:27;15.30;99.90
32640;DHT22;19049;52.524;11.468;2023-08-24T01:47:55;14.50;99.90
32640;DHT22;19049;52.524;11.468;2023-08-24T01:50:22;15.00;99.90
32640;DHT22;19049;52.524;11.468;2023-08-24T01:52:48;14.70;95.10
32640;DHT22;19049;52.524;11.468;2023-08-24T01:55:15;14.60;99.90
32640;DHT22;19049;52.524;11.468;2023-08-24T01:57:42;15.20;99.90
32640;DHT22;19049;52.524;11.468;2023-08-24T02:00:08;15.30;99.90
32640;DHT22;19049;52.524;11.468;2023-08-24T02:02:35;14.60;99.90
32640;DHT22;19049;52.524;11.468;2023-08-24T02:05:02;14.90;99.90
32640;DHT22;19049;52.524;11.468;2023-08-24T02:07:28;14.80;99.90
32640;DHT22;19049;52.524;11.468;2023-08-24T02:09:54;14.70;99.90
32640;DHT22;19049;52.524;11.468;2023-08-24T02:12:19;14.40;99.90
32640;DHT22;19049;52.524;11.468;2023-08-24T02:14:45;13.90;99.90
32640;DHT22;19049;52.524;11.468;2023-08-24T02:17:11;14.60;95.40
32640;DHT22;19049;52.524;11.468;2023-08-24T02:22:03;14.40;99.90
32640;DHT22;19049;52.524;11.468;2023-08-24T02:24:28;14.40;98.80
32640;DHT22;19049;52.524;11.468;2023-08-24T02:29:20;14.20;96.90
32640;DHT22;19049;52.524;11.468;2023-08-24T02:31:46;14.80;99.90
32640;DHT22;19049;52.524;11.468;2023-08-24T02:36:40;14.80;99.90
32640;DHT22;19049;52.524;11.468;2023-08-24T02:39:05;14.50;99.90
32640;DHT22;19049;52.524;11.468;2023-08-24T02:43:57;15.00;99.90
32640;DHT22;19049;52.524;11.468;2023-08-24T02:46:23;14.70;98.40
32640;DHT22;19049;52.524;11.468;2023-08-24T02:48:49;13.10;99.90
32640;DHT22;19049;52.524;11.468;2023-08-24T02:53:40;14.60;99.90
32640;DHT22;19049;52.524;11.468;2023-08-24T02:56:06;14.60;99.90
32640;DHT22;19049;52.524;11.468;2023-08-24T02:58:32;14.30;99.90
32640;DHT22;19049;52.524;11.468;2023-08-24T03:00:57;14.50;99.90
32640;DHT22;19049;52.524;11.468;2023-08-24T03:03:24;14.60;99.90
32640;DHT22;19049;52.524;11.468;2023-08-24T03:05:54;14.70;99.90
32640;DHT22;19049;52.524;11.468;2023-08-24T03:08:20;14.00;99.90
32640;DHT22;19049;52.524;11.468;2023-08-24T03:13:11;13.40;96.20
32640;DHT22;19049;52.524;11.468;2023-08-24T03:15:37;13.60;99.90
32640;DHT22;19049;52.524;11.468;2023-08-24T03:18:03;14.20;96.50
32640;DHT22;19049;52.524;11.468;2023-08-24T03:20:29;14.10;96.50
32640;DHT22;19049;52.524;11.468;2023-08-24T03:22:54;14.10;96.50
32640;DHT22;19049;52.524;11.468;2023-08-24T03:25:20;14.10;96.40
32640;DHT22;19049;52.524;11.468;2023-08-24T03:27:46;14.10;96.40
32640;DHT22;19049;52.524;11.468;2023-08-24T03:30:13;14.00;96.40
32640;DHT22;19049;52.524;11.468;2023-08-24T03:32:40;14.00;96.50
32640;DHT22;19049;52.524;11.468;2023-08-24T03:35:06;14.00;96.50
32640;DHT22;19049;52.524;11.468;2023-08-24T03:37:32;14.00;96.50
32640;DHT22;19049;52.524;11.468;2023-08-24T03:39:58;13.40;99.90
32640;DHT22;19049;52.524;11.468;2023-08-24T03:42:24;13.90;96.50
32640;DHT22;19049;52.524;11.468;2023-08-24T03:44:49;13.90;96.50
32640;DHT22;19049;52.524;11.468;2023-08-24T03:47:15;13.70;99.90
32640;DHT22;19049;52.524;11.468;2023-08-24T03:49:44;14.20;99.90
32640;DHT22;19049;52.524;11.468;2023-08-24T03:57:02;14.10;99.90
32640;DHT22;19049;52.524;11.468;2023-08-24T03:59:28;13.70;96.70
32640;DHT22;19049;52.524;11.468;2023-08-24T04:06:46;14.20;99.90
32640;DHT22;19049;52.524;11.468;2023-08-24T04:09:11;13.60;96.80
32640;DHT22;19049;52.524;11.468;2023-08-24T04:11:37;13.60;96.80
32640;DHT22;19049;52.524;11.468;2023-08-24T04:14:02;13.60;96.90
32640;DHT22;19049;52.524;11.468;2023-08-24T04:16:28;13.60;96.90
32640;DHT22;19049;52.524;11.468;2023-08-24T04:18:54;13.60;96.90
32640;DHT22;19049;52.524;11.468;2023-08-24T04:21:19;13.60;99.90
32640;DHT22;19049;52.524;11.468;2023-08-24T04:23:45;13.60;97.00
32640;DHT22;19049;52.524;11.468;2023-08-24T04:26:11;13.60;97.00
32640;DHT22;19049;52.524;11.468;2023-08-24T04:28:37;14.10;99.90
32640;DHT22;19049;52.524;11.468;2023-08-24T04:31:03;13.60;99.90
32640;DHT22;19049;52.524;11.468;2023-08-24T04:33:29;13.50;97.00
32640;DHT22;19049;52.524;11.468;2023-08-24T04:35:54;13.60;96.90
32640;DHT22;19049;52.524;11.468;2023-08-24T04:38:20;13.50;97.00
32640;DHT22;19049;52.524;11.468;2023-08-24T04:40:50;13.40;99.90
32640;DHT22;19049;52.524;11.468;2023-08-24T04:43:20;14.10;99.90
32640;DHT22;19049;52.524;11.468;2023-08-24T04:48:14;12.70;99.90
32640;DHT22;19049;52.524;11.468;2023-08-24T04:50:43;13.60;97.00
32640;DHT22;19049;52.524;11.468;2023-08-24T04:55:35;13.70;97.10
32640;DHT22;19049;52.524;11.468;2023-08-24T04:58:00;14.30;99.90
32640;DHT22;19049;52.524;11.468;2023-08-24T05:00:26;14.70;99.90
32640;DHT22;19049;52.524;11.468;2023-08-24T05:02:52;13.80;97.60
32640;DHT22;19049;52.524;11.468;2023-08-24T05:05:17;14.20;99.90
32640;DHT22;19049;52.524;11.468;2023-08-24T05:07:43;13.80;99.90
32640;DHT22;19049;52.524;11.468;2023-08-24T05:10:09;14.10;97.90
32640;DHT22;19049;52.524;11.468;2023-08-24T05:12:35;13.80;99.90
32640;DHT22;19049;52.524;11.468;2023-08-24T05:15:04;14.20;97.90
32640;DHT22;19049;52.524;11.468;2023-08-24T05:17:30;14.30;98.10
32640;DHT22;19049;52.524;11.468;2023-08-24T05:19:58;14.50;98.00
32640;DHT22;19049;52.524;11.468;2023-08-24T05:22:24;13.60;99.90
32640;DHT22;19049;52.524;11.468;2023-08-24T05:24:49;15.00;99.90
32640;DHT22;19049;52.524;11.468;2023-08-24T05:29:42;15.00;99.90
32640;DHT22;19049;52.524;11.468;2023-08-24T05:37:00;15.90;99.90
32640;DHT22;19049;52.524;11.468;2023-08-24T05:41:53;15.30;99.90
32640;DHT22;19049;52.524;11.468;2023-08-24T05:44:19;16.10;99.30
32640;DHT22;19049;52.524;11.468;2023-08-24T05:46:45;16.50;99.90
32640;DHT22;19049;52.524;11.468;2023-08-24T05:49:11;16.80;99.90
32640;DHT22;19049;52.524;11.468;2023-08-24T05:51:37;17.10;99.90
32640;DHT22;19049;52.524;11.468;2023-08-24T05:54:03;17.40;99.90
32640;DHT22;19049;52.524;11.468;2023-08-24T05:56:28;17.70;99.90
32640;DHT22;19049;52.524;11.468;2023-08-24T05:58:54;18.00;99.90
32640;DHT22;19049;52.524;11.468;2023-08-24T06:01:20;18.40;99.90
32640;DHT22;19049;52.524;11.468;2023-08-24T06:03:46;18.80;99.90
32640;DHT22;19049;52.524;11.468;2023-08-24T06:06:12;19.20;99.90
32640;DHT22;19049;52.524;11.468;2023-08-24T06:08:37;19.70;99.90
32640;DHT22;19049;52.524;11.468;2023-08-24T06:11:03;20.10;99.90
32640;DHT22;19049;52.524;11.468;2023-08-24T06:13:29;20.50;99.90
32640;DHT22;19049;52.524;11.468;2023-08-24T06:15:54;21.00;99.90
32640;DHT22;19049;52.524;11.468;2023-08-24T06:18:20;21.60;99.90
32640;DHT22;19049;52.524;11.468;2023-08-24T06:20:47;22.10;99.90
32640;DHT22;19049;52.524;11.468;2023-08-24T06:25:41;23.60;99.90
32640;DHT22;19049;52.524;11.468;2023-08-24T06:28:07;23.30;99.90
32640;DHT22;19049;52.524;11.468;2023-08-24T06:30:43;24.10;99.90
32640;DHT22;19049;52.524;11.468;2023-08-24T06:33:09;23.90;96.00
32640;DHT22;19049;52.524;11.468;2023-08-24T06:35:36;24.30;95.60
32640;DHT22;19049;52.524;11.468;2023-08-24T06:38:03;24.70;99.90
32640;DHT22;19049;52.524;11.468;2023-08-24T06:40:30;24.80;94.40
32640;DHT22;19049;52.524;11.468;2023-08-24T06:42:56;25.20;93.30
32640;DHT22;19049;52.524;11.468;2023-08-24T06:45:22;25.90;99.20
32640;DHT22;19049;52.524;11.468;2023-08-24T06:47:48;25.50;99.70
32640;DHT22;19049;52.524;11.468;2023-08-24T06:50:14;25.80;92.60
32640;DHT22;19049;52.524;11.468;2023-08-24T06:55:08;25.80;93.40
32640;DHT22;19049;52.524;11.468;2023-08-24T07:12:10;26.20;99.20
32640;DHT22;19049;52.524;11.468;2023-08-24T07:17:02;26.20;93.80
32640;DHT22;19049;52.524;11.468;2023-08-24T07:21:54;24.60;96.90
32640;DHT22;19049;52.524;11.468;2023-08-24T07:24:20;25.20;90.10
32640;DHT22;19049;52.524;11.468;2023-08-24T07:26:46;25.10;90.00
32640;DHT22;19049;52.524;11.468;2023-08-24T07:29:12;24.90;90.60
32640;DHT22;19049;52.524;11.468;2023-08-24T07:31:38;24.20;97.10
32640;DHT22;19049;52.524;11.468;2023-08-24T07:34:04;25.00;97.70
32640;DHT22;19049;52.524;11.468;2023-08-24T07:36:30;24.40;93.10
32640;DHT22;19049;52.524;11.468;2023-08-24T07:38:56;25.30;96.80
32640;DHT22;19049;52.524;11.468;2023-08-24T07:43:48;24.10;97.00
32640;DHT22;19049;52.524;11.468;2023-08-24T07:48:40;24.30;93.60
32640;DHT22;19049;52.524;11.468;2023-08-24T07:53:32;25.10;97.60
32640;DHT22;19049;52.524;11.468;2023-08-24T07:55:58;25.50;97.40
32640;DHT22;19049;52.524;11.468;2023-08-24T07:58:25;26.30;97.50
32640;DHT22;19049;52.524;11.468;2023-08-24T08:00:51;25.40;97.20
32640;DHT22;19049;52.524;11.468;2023-08-24T08:03:18;26.10;98.00
32640;DHT22;19049;52.524;11.468;2023-08-24T08:05:44;25.90;90.80
32640;DHT22;19049;52.524;11.468;2023-08-24T08:10:36;25.90;89.50
32640;DHT22;19049;52.524;11.468;2023-08-24T08:13:02;26.00;90.50
32640;DHT22;19049;52.524;11.468;2023-08-24T08:15:27;26.10;90.70
32640;DHT22;19049;52.524;11.468;2023-08-24T08:17:53;26.90;97.40
32640;DHT22;19049;52.524;11.468;2023-08-24T08:22:45;27.90;95.90
32640;DHT22;19049;52.524;11.468;2023-08-24T08:25:10;28.30;96.70
32640;DHT22;19049;52.524;11.468;2023-08-24T08:30:05;28.50;99.90
32640;DHT22;19049;52.524;11.468;2023-08-24T08:32:31;28.10;98.90
32640;DHT22;19049;52.524;11.468;2023-08-24T08:37:25;30.30;95.60
32640;DHT22;19049;52.524;11.468;2023-08-24T08:39:51;29.60;88.70
32640;DHT22;19049;52.524;11.468;2023-08-24T08:42:17;30.00;87.40
32640;DHT22;19049;52.524;11.468;2023-08-24T08:44:45;30.30;94.20
32640;DHT22;19049;52.524;11.468;2023-08-24T08:49:43;30.60;95.50
32640;DHT22;19049;52.524;11.468;2023-08-24T08:52:09;31.10;82.90
32640;DHT22;19049;52.524;11.468;2023-08-24T08:54:35;31.20;92.90
32640;DHT22;19049;52.524;11.468;2023-08-24T08:57:01;31.40;91.70
32640;DHT22;19049;52.524;11.468;2023-08-24T08:59:28;31.70;88.10
32640;DHT22;19049;52.524;11.468;2023-08-24T09:01:57;31.00;89.30
32640;DHT22;19049;52.524;11.468;2023-08-24T09:04:27;31.50;78.20
32640;DHT22;19049;52.524;11.468;2023-08-24T09:06:55;31.40;89.80
32640;DHT22;19049;52.524;11.468;2023-08-24T09:09:21;32.20;90.00
32640;DHT22;19049;52.524;11.468;2023-08-24T09:11:48;31.80;77.00
32640;DHT22;19049;52.524;11.468;2023-08-24T09:14:14;31.80;77.50
32640;DHT22;19049;52.524;11.468;2023-08-24T09:16:41;31.90;76.30
32640;DHT22;19049;52.524;11.468;2023-08-24T09:19:10;31.80;88.90
32640;DHT22;19049;52.524;11.468;2023-08-24T09:21:39;32.00;74.60
32640;DHT22;19049;52.524;11.468;2023-08-24T09:24:07;32.90;89.60
32640;DHT22;19049;52.524;11.468;2023-08-24T09:26:35;32.20;84.40
32640;DHT22;19049;52.524;11.468;2023-08-24T09:29:14;32.30;85.40
32640;DHT22;19049;52.524;11.468;2023-08-24T09:31:40;31.80;84.30
32640;DHT22;19049;52.524;11.468;2023-08-24T09:34:06;31.80;83.50
32640;DHT22;19049;52.524;11.468;2023-08-24T09:36:36;32.10;90.80
32640;DHT22;19049;52.524;11.468;2023-08-24T09:39:03;33.00;90.30
32640;DHT22;19049;52.524;11.468;2023-08-24T09:41:45;32.40;68.40
32640;DHT22;19049;52.524;11.468;2023-08-24T09:44:11;32.40;68.10
32640;DHT22;19049;52.524;11.468;2023-08-24T09:46:38;32.30;69.60
32640;DHT22;19049;52.524;11.468;2023-08-24T09:49:09;30.90;66.90
32640;DHT22;19049;52.524;11.468;2023-08-24T09:51:36;32.10;66.80
32640;DHT22;19049;52.524;11.468;2023-08-24T09:54:09;32.10;68.20
32640;DHT22;19049;52.524;11.468;2023-08-24T09:56:36;32.00;65.40
32640;DHT22;19049;52.524;11.468;2023-08-24T09:59:10;31.90;67.60
32640;DHT22;19049;52.524;11.468;2023-08-24T10:01:37;32.00;68.60
32640;DHT22;19049;52.524;11.468;2023-08-24T10:04:05;31.60;65.80
32640;DHT22;19049;52.524;11.468;2023-08-24T10:06:31;32.10;66.40
32640;DHT22;19049;52.524;11.468;2023-08-24T10:09:02;32.10;64.90
32640;DHT22;19049;52.524;11.468;2023-08-24T10:11:31;32.10;64.40
32640;DHT22;19049;52.524;11.468;2023-08-24T10:14:27;32.10;66.30
32640;DHT22;19049;52.524;11.468;2023-08-24T10:16:54;32.10;64.70
32640;DHT22;19049;52.524;11.468;2023-08-24T10:19:22;32.10;65.70
32640;DHT22;19049;52.524;11.468;2023-08-24T10:21:49;32.10;65.40
32640;DHT22;19049;52.524;11.468;2023-08-24T10:24:16;32.20;63.00
32640;DHT22;19049;52.524;11.468;2023-08-24T10:26:42;32.30;63.80
32640;DHT22;19049;52.524;11.468;2023-08-24T10:29:09;32.30;61.50
32640;DHT22;19049;52.524;11.468;2023-08-24T10:31:36;32.30;62.00
32640;DHT22;19049;52.524;11.468;2023-08-24T10:34:02;32.30;62.10
32640;DHT22;19049;52.524;11.468;2023-08-24T10:36:28;32.30;62.70
32640;DHT22;19049;52.524;11.468;2023-08-24T10:39:02;32.20;60.30
32640;DHT22;19049;52.524;11.468;2023-08-24T10:41:49;32.20;60.60
32640;DHT22;19049;52.524;11.468;2023-08-24T10:44:44;32.10;61.00
32640;DHT22;19049;52.524;11.468;2023-08-24T10:47:21;32.10;59.50
32640;DHT22;19049;52.524;11.468;2023-08-24T10:49:58;32.20;61.90
32640;DHT22;19049;52.524;11.468;2023-08-24T10:52:33;32.20;60.40
32640;DHT22;19049;52.524;11.468;2023-08-24T10:55:05;32.30;61.20
32640;DHT22;19049;52.524;11.468;2023-08-24T10:58:01;32.30;60.10
32640;DHT22;19049;52.524;11.468;2023-08-24T11:00:29;32.50;60.40
32640;DHT22;19049;52.524;11.468;2023-08-24T11:02:56;32.60;81.30
32640;DHT22;19049;52.524;11.468;2023-08-24T11:05:29;32.70;59.50
32640;DHT22;19049;52.524;11.468;2023-08-24T11:08:00;33.00;68.80
32640;DHT22;19049;52.524;11.468;2023-08-24T11:13:15;32.70;66.70
32640;DHT22;19049;52.524;11.468;2023-08-24T11:15:44;32.60;62.70
32640;DHT22;19049;52.524;11.468;2023-08-24T11:20:49;33.20;52.40
32640;DHT22;19049;52.524;11.468;2023-08-24T11:23:16;32.50;59.30
32640;DHT22;19049;52.524;11.468;2023-08-24T11:25:42;32.60;59.40
32640;DHT22;19049;52.524;11.468;2023-08-24T11:28:08;33.30;59.50
32640;DHT22;19049;52.524;11.468;2023-08-24T11:30:34;33.60;54.60
32640;DHT22;19049;52.524;11.468;2023-08-24T11:33:02;33.80;61.50
32640;DHT22;19049;52.524;11.468;2023-08-24T11:35:28;32.40;60.40
32640;DHT22;19049;52.524;11.468;2023-08-24T11:37:55;33.20;54.10
32640;DHT22;19049;52.524;11.468;2023-08-24T11:40:22;32.80;59.70
32640;DHT22;19049;52.524;11.468;2023-08-24T11:42:59;32.70;59.80
32640;DHT22;19049;52.524;11.468;2023-08-24T11:45:30;33.70;60.30
32640;DHT22;19049;52.524;11.468;2023-08-24T11:47:58;33.50;54.00
32640;DHT22;19049;52.524;11.468;2023-08-24T11:52:52;33.40;58.10
32640;DHT22;19049;52.524;11.468;2023-08-24T11:55:18;33.70;58.00
32640;DHT22;19049;52.524;11.468;2023-08-24T11:57:44;33.90;59.60
32640;DHT22;19049;52.524;11.468;2023-08-24T12:00:10;33.60;58.20
32640;DHT22;19049;52.524;11.468;2023-08-24T12:02:42;33.80;52.50
32640;DHT22;19049;52.524;11.468;2023-08-24T12:05:19;33.90;52.60
32640;DHT22;19049;52.524;11.468;2023-08-24T12:07:45;33.90;52.30
32640;DHT22;19049;52.524;11.468;2023-08-24T12:10:12;34.00;52.20
32640;DHT22;19049;52.524;11.468;2023-08-24T12:12:38;33.80;70.30
32640;DHT22;19049;52.524;11.468;2023-08-24T12:15:04;34.60;72.00
32640;DHT22;19049;52.524;11.468;2023-08-24T12:17:41;34.20;52.40
32640;DHT22;19049;52.524;11.468;2023-08-24T12:20:07;34.20;51.60
32640;DHT22;19049;52.524;11.468;2023-08-24T12:22:38;34.60;62.40
32640;DHT22;19049;52.524;11.468;2023-08-24T12:25:04;34.20;64.30
32640;DHT22;19049;52.524;11.468;2023-08-24T12:27:31;34.30;52.50
32640;DHT22;19049;52.524;11.468;2023-08-24T12:30:00;34.20;52.50
32640;DHT22;19049;52.524;11.468;2023-08-24T12:32:42;34.20;51.90
32640;DHT22;19049;52.524;11.468;2023-08-24T12:37:36;34.00;61.20
32640;DHT22;19049;52.524;11.468;2023-08-24T12:40:03;34.40;70.00
32640;DHT22;19049;52.524;11.468;2023-08-24T12:44:58;34.70;51.70
32640;DHT22;19049;52.524;11.468;2023-08-24T12:47:23;34.80;51.50
32640;DHT22;19049;52.524;11.468;2023-08-24T12:49:49;34.70;60.50
32640;DHT22;19049;52.524;11.468;2023-08-24T12:52:22;34.60;61.20
32640;DHT22;19049;52.524;11.468;2023-08-24T12:54:47;35.00;61.00
32640;DHT22;19049;52.524;11.468;2023-08-24T12:57:13;34.70;50.30
32640;DHT22;19049;52.524;11.468;2023-08-24T12:59:39;34.60;50.50
32640;DHT22;19049;52.524;11.468;2023-08-24T13:02:05;34.50;50.20
32640;DHT22;19049;52.524;11.468;2023-08-24T13:04:31;34.40;49.80
32640;DHT22;19049;52.524;11.468;2023-08-24T13:06:58;34.30;49.80
32640;DHT22;19049;52.524;11.468;2023-08-24T13:09:24;34.30;50.00
32640;DHT22;19049;52.524;11.468;2023-08-24T13:11:50;34.30;50.00
32640;DHT22;19049;52.524;11.468;2023-08-24T13:14:15;34.00;61.90
32640;DHT22;19049;52.524;11.468;2023-08-24T13:16:41;34.40;51.10
32640;DHT22;19049;52.524;11.468;2023-08-24T13:19:07;35.10;61.60
32640;DHT22;19049;52.524;11.468;2023-08-24T13:21:33;34.60;50.90
32640;DHT22;19049;52.524;11.468;2023-08-24T13:23:58;34.70;49.80
32640;DHT22;19049;52.524;11.468;2023-08-24T13:26:24;36.10;64.70
32640;DHT22;19049;52.524;11.468;2023-08-24T13:31:17;35.30;65.80
32640;DHT22;19049;52.524;11.468;2023-08-24T13:33:42;35.30;58.20
32640;DHT22;19049;52.524;11.468;2023-08-24T13:36:08;35.20;48.70
32640;DHT22;19049;52.524;11.468;2023-08-24T13:41:00;35.50;47.50
32640;DHT22;19049;52.524;11.468;2023-08-24T13:43:25;35.80;47.90
32640;DHT22;19049;52.524;11.468;2023-08-24T13:45:51;36.00;47.60
32640;DHT22;19049;52.524;11.468;2023-08-24T13:48:16;36.00;63.80
32640;DHT22;19049;52.524;11.468;2023-08-24T13:50:49;36.40;46.50
32640;DHT22;19049;52.524;11.468;2023-08-24T13:53:15;36.40;52.50
32640;DHT22;19049;52.524;11.468;2023-08-24T13:55:41;36.00;57.60
32640;DHT22;19049;52.524;11.468;2023-08-24T14:00:33;37.20;56.70
32640;DHT22;19049;52.524;11.468;2023-08-24T14:02:59;36.50;57.70
32640;DHT22;19049;52.524;11.468;2023-08-24T14:05:25;37.30;55.50
32640;DHT22;19049;52.524;11.468;2023-08-24T14:07:50;36.80;45.20
32640;DHT22;19049;52.524;11.468;2023-08-24T14:10:16;37.00;56.80
32640;DHT22;19049;52.524;11.468;2023-08-24T14:12:42;36.90;46.40
32640;DHT22;19049;52.524;11.468;2023-08-24T14:15:08;37.00;44.80
32640;DHT22;19049;52.524;11.468;2023-08-24T14:17:34;37.20;45.00
32640;DHT22;19049;52.524;11.468;2023-08-24T14:19:59;37.30;44.00
32640;DHT22;19049;52.524;11.468;2023-08-24T14:22:25;37.20;53.80
32640;DHT22;19049;52.524;11.468;2023-08-24T14:24:51;37.30;43.80
32640;DHT22;19049;52.524;11.468;2023-08-24T14:27:17;37.40;43.50
32640;DHT22;19049;52.524;11.468;2023-08-24T14:29:42;37.40;43.30
32640;DHT22;19049;52.524;11.468;2023-08-24T14:32:08;37.40;43.60
32640;DHT22;19049;52.524;11.468;2023-08-24T14:34:34;37.40;42.90
32640;DHT22;19049;52.524;11.468;2023-08-24T14:36:59;37.40;43.20
32640;DHT22;19049;52.524;11.468;2023-08-24T14:39:25;37.30;42.60
32640;DHT22;19049;52.524;11.468;2023-08-24T14:41:51;37.20;42.60
32640;DHT22;19049;52.524;11.468;2023-08-24T14:44:16;37.10;43.10
32640;DHT22;19049;52.524;11.468;2023-08-24T14:46:42;37.10;43.00
32640;DHT22;19049;52.524;11.468;2023-08-24T14:49:07;37.00;42.10
32640;DHT22;19049;52.524;11.468;2023-08-24T14:51:34;37.00;42.50
32640;DHT22;19049;52.524;11.468;2023-08-24T14:53:59;36.90;43.10
32640;DHT22;19049;52.524;11.468;2023-08-24T14:56:25;36.90;42.10
32640;DHT22;19049;52.524;11.468;2023-08-24T14:58:50;36.90;42.80
32640;DHT22;19049;52.524;11.468;2023-08-24T15:01:16;36.90;43.10
32640;DHT22;19049;52.524;11.468;2023-08-24T15:03:42;36.80;42.80
32640;DHT22;19049;52.524;11.468;2023-08-24T15:06:08;36.70;43.10
32640;DHT22;19049;52.524;11.468;2023-08-24T15:08:34;36.50;42.70
32640;DHT22;19049;52.524;11.468;2023-08-24T15:11:01;36.30;43.00
32640;DHT22;19049;52.524;11.468;2023-08-24T15:13:28;36.00;42.90
32640;DHT22;19049;52.524;11.468;2023-08-24T15:15:56;35.80;43.70
32640;DHT22;19049;52.524;11.468;2023-08-24T15:18:23;35.50;43.00
32640;DHT22;19049;52.524;11.468;2023-08-24T15:20:49;35.20;43.70
32640;DHT22;19049;52.524;11.468;2023-08-24T15:23:29;34.60;43.80
32640;DHT22;19049;52.524;11.468;2023-08-24T15:25:57;34.70;51.40
32640;DHT22;19049;52.524;11.468;2023-08-24T15:28:23;33.40;50.40
32640;DHT22;19049;52.524;11.468;2023-08-24T15:30:49;34.10;44.90
32640;DHT22;19049;52.524;11.468;2023-08-24T15:33:19;33.90;45.00
32640;DHT22;19049;52.524;11.468;2023-08-24T15:35:45;33.50;45.70
32640;DHT22;19049;52.524;11.468;2023-08-24T15:38:11;33.30;46.30
32640;DHT22;19049;52.524;11.468;2023-08-24T15:40:38;33.00;46.50
32640;DHT22;19049;52.524;11.468;2023-08-24T15:43:05;32.80;47.20
32640;DHT22;19049;52.524;11.468;2023-08-24T15:45:31;32.60;47.90
32640;DHT22;19049;52.524;11.468;2023-08-24T15:47:57;32.40;48.50
32640;DHT22;19049;52.524;11.468;2023-08-24T15:50:23;32.20;48.10
32640;DHT22;19049;52.524;11.468;2023-08-24T15:52:49;32.10;49.60
32640;DHT22;19049;52.524;11.468;2023-08-24T15:55:15;32.00;49.10
32640;DHT22;19049;52.524;11.468;2023-08-24T15:57:41;31.90;48.90
32640;DHT22;19049;52.524;11.468;2023-08-24T16:00:06;31.90;56.50
32640;DHT22;19049;52.524;11.468;2023-08-24T16:02:38;31.70;49.10
32640;DHT22;19049;52.524;11.468;2023-08-24T16:05:04;31.60;49.50
32640;DHT22;19049;52.524;11.468;2023-08-24T16:07:30;30.90;58.30
32640;DHT22;19049;52.524;11.468;2023-08-24T16:09:56;30.80;58.00
32640;DHT22;19049;52.524;11.468;2023-08-24T16:12:22;32.10;58.50
32640;DHT22;19049;52.524;11.468;2023-08-24T16:14:48;31.20;58.40
32640;DHT22;19049;52.524;11.468;2023-08-24T16:17:13;31.20;58.80
32640;DHT22;19049;52.524;11.468;2023-08-24T16:22:05;30.20;58.80
32640;DHT22;19049;52.524;11.468;2023-08-24T16:24:32;31.50;59.80
32640;DHT22;19049;52.524;11.468;2023-08-24T16:26:58;31.10;59.60
32640;DHT22;19049;52.524;11.468;2023-08-24T16:29:24;30.50;63.50
32640;DHT22;19049;52.524;11.468;2023-08-24T16:31:52;31.10;64.60
32640;DHT22;19049;52.524;11.468;2023-08-24T16:34:18;30.60;53.40
32640;DHT22;19049;52.524;11.468;2023-08-24T16:36:43;30.50;54.00
32640;DHT22;19049;52.524;11.468;2023-08-24T16:39:09;30.40;53.90
32640;DHT22;19049;52.524;11.468;2023-08-24T16:41:35;30.20;54.30
32640;DHT22;19049;52.524;11.468;2023-08-24T16:44:02;30.10;54.70
32640;DHT22;19049;52.524;11.468;2023-08-24T16:46:28;29.90;54.60
32640;DHT22;19049;52.524;11.468;2023-08-24T16:48:53;29.80;55.30
32640;DHT22;19049;52.524;11.468;2023-08-24T16:51:19;30.00;78.40
32640;DHT22;19049;52.524;11.468;2023-08-24T16:53:45;29.40;56.50
32640;DHT22;19049;52.524;11.468;2023-08-24T16:56:10;29.30;56.70
32640;DHT22;19049;52.524;11.468;2023-08-24T16:58:36;29.20;57.30
32640;DHT22;19049;52.524;11.468;2023-08-24T17:01:06;29.00;57.90
32640;DHT22;19049;52.524;11.468;2023-08-24T17:03:32;28.90;72.30
32640;DHT22;19049;52.524;11.468;2023-08-24T17:05:57;29.20;72.60
32640;DHT22;19049;52.524;11.468;2023-08-24T17:08:23;28.50;57.80
32640;DHT22;19049;52.524;11.468;2023-08-24T17:10:49;28.10;73.50
32640;DHT22;19049;52.524;11.468;2023-08-24T17:13:14;28.60;72.90
32640;DHT22;19049;52.524;11.468;2023-08-24T17:15:40;28.00;58.20